Joseph, Oregon
Current Conditions -  °F | °C
As of 9:15 PM on Tuesday 25 Nov 2014 (Local Time) from KLGD Reporting Station
Overcast Overcast  
Wind Chill: 11°   Ceiling: 3900
Heat Index: 11°   Visibility: 10mi
Dew Point:   Wind: 6mph
Humidity: 71%   Direction: 60°ENE
Pressure: 30.21"   Gusts: NA
Location:  45.35°N, 117.23°W
Report Text: KLGD 260515Z AUTO 06005KT 10SM BKN039 OVC044 11/06 A3021 RMK AO1
Loading
Personal Weather Stations






























Interactive Weather Map New forecast layout! Learn more

10-Day Weather Forecast

Advertisements
Track Severe Weather on mobile